Strona główna
Zdjęcia satelitarne 10-dni prognozyKlimatMeteorologia morska Cyklony Błyskawica LotniskoFAQ Gazetka O
Pogoda : Europa Afryka Ameryka Północna Ameryka Południowa Azja Australia-Oceania Inny
Języki Kontakt

Katowice, Polska

Port lotniczy Katowice-Pyrzowice

Szerokość geograficzna: 50-28-27N, Długość geograficzna: 019-04-48E, wysokość: 284 m


METAR: EPKT 251100Z 06010KT 9999 BKN023 16/11 Q1013
TAF: EPKT 250830Z 2509/2518 06007KT 9999 BKN020 TEMPO 2511/2518 3000 SHRA BKN012CB

czas: 13:11 (11:11 UTC)

Aktualna obserwacja pogody

Raport powstał 11 minut temu, godzina 11:00 UTC
Wiatr 10 kt od wschodnio-północny wschód
Temperatura 16°C
Wilgotność 72%
Ciśnienie 1013 hPa
Widzialność 10 km lub więcej
Przerywane chmury na wysokości 2300 ft

Jednostka miary

Prognoza

Raport powstał 2 godziny i 41 minut temu, godzina 08:30 UTC
Prognoza ważna od 25 godzina 09 UTC do 25 godzina 18 UTC
Wiatr 7 kt od wschodnio-północny wschód
Widzialność 10 km lub więcej
Przerywane chmury na wysokości 2000 ft
Przejściowo
od 25 godzina 11 UTC do 25 godzina 18 UTC
Widzialność: 3000 m
Przerywane chmury na wysokości 1200 ft, Cumulonimbus.
przelotny opad deszczu
Informacje na tej stronie internetowej podlegają klauzuli o wyłączeniu odpowiedzialności
Pogoda : Europa Afryka Ameryka Północna Ameryka Południowa Azja Australia-Oceania Inny
Zdjęcia satelitarne 10-dni prognozyKlimatMeteorologia morska Cyklony Błyskawica LotniskoFAQ Języki Kontakt Gazetka O